Time;durP1;ratioP1;P1;durP2;ratioP2;P2;SDS_P1;SDS_P2;PMS_P1;PMS_P2;Temp;Humidity;BMP_temperature;BMP_pressure;BME280_temperature;BME280_humidity;BME280_pressure;Samples;Min_cycle;Max_cycle;Signal;HPM_P1;HPM_P2
2023/03/22 00:01:59;;;;;;;17.85;11.88;;;10.00;99.90;;;;;;6276165;22;20012;-79
2023/03/22 00:04:25;;;;;;;20.08;11.45;;;10.00;99.90;;;;;;6275251;22;20019;-79
2023/03/22 00:06:50;;;;;;;17.77;10.80;;;9.90;99.90;;;;;;6248290;22;20012;-79
2023/03/22 00:09:17;;;;;;;15.35;11.15;;;9.90;99.90;;;;;;6275040;22;20008;-79
2023/03/22 00:11:42;;;;;;;17.30;11.40;;;9.90;99.90;;;;;;6248211;22;20208;-79
2023/03/22 00:14:08;;;;;;;21.33;11.30;;;9.90;99.90;;;;;;6275486;22;20012;-79
2023/03/22 00:16:34;;;;;;;22.08;12.05;;;9.90;99.90;;;;;;6248002;22;20015;-79
2023/03/22 00:18:59;;;;;;;17.08;11.07;;;9.90;99.90;;;;;;6248195;22;20341;-79
2023/03/22 00:21:25;;;;;;;18.30;11.02;;;9.90;99.90;;;;;;6275280;22;20061;-79
2023/03/22 00:23:51;;;;;;;17.00;9.75;;;10.00;99.90;;;;;;6247500;22;20346;-78
2023/03/22 00:26:16;;;;;;;18.75;9.35;;;10.00;99.90;;;;;;6275477;22;20012;-79
2023/03/22 00:28:42;;;;;;;17.38;10.15;;;9.90;99.90;;;;;;6247850;22;20458;-79
2023/03/22 00:31:09;;;;;;;18.02;9.70;;;9.90;99.90;;;;;;6274695;22;20007;-78
2023/03/22 00:33:35;;;;;;;17.58;9.85;;;9.90;99.90;;;;;;6275111;22;20302;-79
2023/03/22 00:36:10;;;;;;;20.83;10.00;;;9.80;99.90;;;;;;6248249;22;20011;-79
2023/03/22 00:38:36;;;;;;;16.88;9.20;;;9.80;99.90;;;;;;6247257;22;20141;-79
2023/03/22 00:41:17;;;;;;;18.60;10.07;;;9.70;99.90;;;;;;6247648;22;20011;-79
2023/03/22 00:43:44;;;;;;;17.55;8.98;;;9.80;99.90;;;;;;6247742;22;20458;-79
2023/03/22 00:46:14;;;;;;;19.83;9.57;;;9.80;99.90;;;;;;6274959;22;20090;-79
2023/03/22 00:48:40;;;;;;;22.55;9.48;;;9.80;99.90;;;;;;6247684;22;20016;-79
2023/03/22 00:51:07;;;;;;;17.65;9.55;;;9.70;99.90;;;;;;6246906;22;20018;-79
2023/03/22 00:53:35;;;;;;;17.75;8.55;;;9.70;99.90;;;;;;6247659;22;20043;-78
2023/03/22 00:56:01;;;;;;;19.52;9.40;;;9.70;99.90;;;;;;6222550;22;20012;-79
2023/03/22 00:58:26;;;;;;;16.58;8.98;;;9.70;99.90;;;;;;6275106;22;20008;-79
2023/03/22 01:00:52;;;;;;;15.20;9.20;;;9.60;99.90;;;;;;6247566;22;20201;-79
2023/03/22 01:03:17;;;;;;;19.38;9.25;;;9.60;99.90;;;;;;6247401;22;20035;-79
2023/03/22 01:05:48;;;;;;;17.33;9.25;;;9.60;99.90;;;;;;6274585;22;20094;-79
2023/03/22 01:08:17;;;;;;;18.20;8.23;;;9.60;99.90;;;;;;6247522;22;20016;-78
2023/03/22 01:10:43;;;;;;;14.90;7.72;;;9.60;99.90;;;;;;6247646;22;20043;-79
2023/03/22 01:13:10;;;;;;;16.17;8.35;;;9.60;99.90;;;;;;6247305;22;20501;-79
2023/03/22 01:15:40;;;;;;;16.35;8.50;;;9.60;99.90;;;;;;6274762;22;20018;-79
2023/03/22 01:18:07;;;;;;;16.40;7.47;;;9.50;99.90;;;;;;6247651;22;20023;-78
2023/03/22 01:20:33;;;;;;;17.50;7.28;;;9.50;99.90;;;;;;6247376;22;20316;-79
2023/03/22 01:22:59;;;;;;;18.50;7.13;;;9.60;99.90;;;;;;6247211;22;20082;-80
2023/03/22 01:25:25;;;;;;;13.60;6.47;;;9.50;99.90;;;;;;6247957;22;20473;-79
2023/03/22 01:27:51;;;;;;;14.82;7.40;;;9.50;99.90;;;;;;6222031;22;20016;-78
2023/03/22 01:30:16;;;;;;;18.40;7.50;;;9.50;99.90;;;;;;6274558;22;20008;-78
2023/03/22 01:32:42;;;;;;;13.55;6.72;;;9.40;99.90;;;;;;6247368;22;20092;-79
2023/03/22 01:35:08;;;;;;;17.50;6.95;;;9.40;99.90;;;;;;6246867;22;20433;-80
2023/03/22 01:37:34;;;;;;;15.90;6.78;;;9.40;99.90;;;;;;6222127;22;20341;-79
2023/03/22 01:40:00;;;;;;;19.27;7.13;;;9.40;99.90;;;;;;6247421;22;20043;-79
2023/03/22 01:42:26;;;;;;;15.00;5.88;;;9.40;99.90;;;;;;6274836;22;20015;-79
2023/03/22 01:45:14;;;;;;;12.52;6.07;;;9.40;99.90;;;;;;6247050;22;20082;-79
2023/03/22 01:48:00;;;;;;;11.65;5.65;;;9.40;99.90;;;;;;6246723;22;20034;-79
2023/03/22 01:50:27;;;;;;;13.75;5.53;;;9.40;99.90;;;;;;6246530;22;20016;-79
2023/03/22 01:52:55;;;;;;;10.80;5.32;;;9.30;99.90;;;;;;6247231;22;20012;-79
2023/03/22 01:55:22;;;;;;;11.18;4.97;;;9.30;99.90;;;;;;6247316;22;20038;-79
2023/03/22 01:57:49;;;;;;;17.58;5.63;;;9.30;99.90;;;;;;6247263;22;20043;-79
2023/03/22 02:00:17;;;;;;;17.35;5.20;;;9.30;99.90;;;;;;6247073;22;20015;-79
2023/03/22 02:02:50;;;;;;;13.80;5.28;;;9.30;99.90;;;;;;6221829;22;20019;-79
2023/03/22 02:05:21;;;;;;;13.98;5.10;;;9.30;99.90;;;;;;6221171;22;20334;-79
2023/03/22 02:07:48;;;;;;;17.65;5.15;;;9.30;99.90;;;;;;6247176;22;20125;-79
2023/03/22 02:10:17;;;;;;;14.52;4.53;;;9.20;99.90;;;;;;6247248;22;20379;-79
2023/03/22 02:13:21;;;;;;;17.75;5.50;;;9.20;99.90;;;;;;6274644;22;20062;-80
2023/03/22 02:16:01;;;;;;;11.30;4.68;;;9.20;99.90;;;;;;6221715;22;20076;-79
2023/03/22 02:18:37;;;;;;;14.90;4.75;;;9.20;99.90;;;;;;6246471;22;20016;-78
2023/03/22 02:21:19;;;;;;;10.20;4.28;;;9.40;99.90;;;;;;6247118;22;20016;-78
2023/03/22 02:24:00;;;;;;;17.98;4.50;;;9.30;99.90;;;;;;6274724;22;20012;-79
2023/03/22 02:26:53;;;;;;;18.23;5.20;;;9.20;99.90;;;;;;6221767;22;20008;-79
2023/03/22 02:29:35;;;;;;;12.85;4.45;;;9.20;99.90;;;;;;6246924;22;20015;-79
2023/03/22 02:32:04;;;;;;;13.45;4.25;;;9.20;99.90;;;;;;6274514;22;20034;-80
2023/03/22 02:34:45;;;;;;;11.25;3.72;;;9.20;99.90;;;;;;6273768;22;20011;-79
2023/03/22 02:37:35;;;;;;;14.20;4.28;;;9.20;99.90;;;;;;6246815;22;20007;-79
2023/03/22 02:40:07;;;;;;;15.70;4.07;;;9.20;99.90;;;;;;6246878;22;20292;-79
2023/03/22 02:42:38;;;;;;;11.25;4.03;;;9.20;99.90;;;;;;6246764;22;20481;-80
2023/03/22 02:45:36;;;;;;;17.27;4.15;;;9.20;99.90;;;;;;6274042;22;20090;-79
2023/03/22 02:48:41;;;;;;;12.65;3.80;;;9.20;99.90;;;;;;6179908;22;20016;-79
2023/03/22 02:51:20;;;;;;;10.30;3.47;;;9.20;99.90;;;;;;6247174;22;20008;-79
2023/03/22 02:53:48;;;;;;;11.95;3.38;;;9.20;99.90;;;;;;6246820;22;20054;-79
2023/03/22 02:56:50;;;;;;;20.00;4.55;;;9.20;99.90;;;;;;6246793;22;20457;-79
2023/03/22 02:59:18;;;;;;;12.40;3.20;;;9.20;99.90;;;;;;6149933;23;20010;-79
2023/03/22 03:02:02;;;;;;;14.90;3.85;;;9.60;99.90;;;;;;6124991;23;20040;-79
2023/03/22 03:04:31;;;;;;;13.40;4.10;;;9.20;99.90;;;;;;6125925;23;20364;-79
2023/03/22 03:07:01;;;;;;;12.20;3.38;;;9.20;99.90;;;;;;6125717;23;20044;-79
2023/03/22 03:09:30;;;;;;;13.60;3.70;;;9.20;99.90;;;;;;6150174;23;20021;-79
2023/03/22 03:11:56;;;;;;;13.73;3.35;;;9.20;99.90;;;;;;6125880;23;20390;-78
2023/03/22 03:14:31;;;;;;;19.70;4.20;;;9.20;99.90;;;;;;6150114;23;20021;-79
2023/03/22 03:17:28;;;;;;;12.02;3.70;;;9.40;99.90;;;;;;6125341;23;20688;-79
2023/03/22 03:20:16;;;;;;;13.45;3.97;;;9.20;99.90;;;;;;6125575;23;20053;-79
2023/03/22 03:23:03;;;;;;;9.35;3.40;;;9.20;99.90;;;;;;6150140;23;20024;-79
2023/03/22 03:25:45;;;;;;;10.70;3.28;;;9.20;99.90;;;;;;6126124;23;20090;-78
2023/03/22 03:28:29;;;;;;;12.65;3.55;;;9.20;99.90;;;;;;6125950;23;20014;-79
2023/03/22 03:31:19;;;;;;;12.75;3.67;;;9.20;99.90;;;;;;6150141;23;20344;-80
2023/03/22 03:34:07;;;;;;;16.70;4.10;;;9.20;99.90;;;;;;6122931;22;20052;-79
2023/03/22 03:36:36;;;;;;;13.20;4.10;;;9.40;99.90;;;;;;6274229;22;20011;-79
2023/03/22 03:39:07;;;;;;;15.90;3.60;;;9.20;99.90;;;;;;6274582;22;20008;-80
2023/03/22 03:41:34;;;;;;;14.13;3.67;;;9.20;99.90;;;;;;6247076;22;20016;-79
2023/03/22 03:44:01;;;;;;;16.75;3.95;;;9.20;99.90;;;;;;6221448;22;20342;-79
2023/03/22 03:46:28;;;;;;;15.38;4.25;;;9.20;99.90;;;;;;6245942;22;20015;-79
2023/03/22 03:48:56;;;;;;;13.65;4.30;;;9.30;99.90;;;;;;6246691;22;20046;-79
2023/03/22 03:51:22;;;;;;;13.75;4.55;;;9.20;99.90;;;;;;6246452;22;20028;-79
2023/03/22 03:53:47;;;;;;;18.13;4.53;;;9.20;99.90;;;;;;6274071;22;20089;-79
2023/03/22 03:56:13;;;;;;;13.00;4.22;;;9.30;99.90;;;;;;6221295;22;20141;-79
2023/03/22 03:58:39;;;;;;;16.45;4.38;;;9.30;99.90;;;;;;6221338;22;20008;-79
2023/03/22 04:01:05;;;;;;;17.60;4.63;;;9.20;99.90;;;;;;6246233;22;20335;-79
2023/03/22 04:03:31;;;;;;;13.60;4.22;;;9.20;99.90;;;;;;6216052;23;20030;-79
2023/03/22 04:05:58;;;;;;;12.88;4.57;;;9.20;99.90;;;;;;6243224;22;20020;-79
2023/03/22 04:08:24;;;;;;;16.33;4.50;;;9.20;99.90;;;;;;6241344;22;20020;-79
2023/03/22 04:10:51;;;;;;;13.43;4.63;;;9.20;99.90;;;;;;6244291;22;20320;-79
2023/03/22 04:13:20;;;;;;;14.30;4.45;;;9.20;99.90;;;;;;6244957;22;20004;-79
2023/03/22 04:15:46;;;;;;;15.23;5.35;;;9.20;99.90;;;;;;6242619;23;20008;-79
2023/03/22 04:18:11;;;;;;;11.55;4.30;;;9.20;99.90;;;;;;6242871;23;20038;-79
2023/03/22 04:20:48;;;;;;;15.27;4.20;;;9.30;99.90;;;;;;6244549;22;20016;-79
2023/03/22 04:23:14;;;;;;;13.55;4.68;;;9.20;99.90;;;;;;6243346;23;20023;-79
2023/03/22 04:25:40;;;;;;;14.27;4.30;;;9.20;99.90;;;;;;6243361;23;20009;-79
2023/03/22 04:28:06;;;;;;;16.60;4.72;;;9.20;99.90;;;;;;6244570;22;20015;-79
2023/03/22 04:30:34;;;;;;;12.65;4.53;;;9.20;99.90;;;;;;6242224;23;20008;-79
2023/03/22 04:33:07;;;;;;;13.75;4.35;;;9.20;99.90;;;;;;6242899;23;20008;-79
2023/03/22 04:35:33;;;;;;;15.13;5.03;;;9.20;99.90;;;;;;6217584;23;20023;-79
2023/03/22 04:38:00;;;;;;;12.52;4.88;;;9.20;99.90;;;;;;6243011;23;20018;-79
2023/03/22 04:40:27;;;;;;;14.18;4.95;;;9.50;99.90;;;;;;6242936;23;20434;-79
2023/03/22 04:42:56;;;;;;;14.98;5.70;;;9.20;99.90;;;;;;6244561;22;20081;-79
2023/03/22 04:45:22;;;;;;;13.55;5.88;;;9.50;99.90;;;;;;6242633;23;20077;-79
2023/03/22 04:47:48;;;;;;;17.42;6.10;;;9.20;99.90;;;;;;6242670;23;20012;-79
2023/03/22 04:50:13;;;;;;;14.23;6.53;;;9.20;99.90;;;;;;6242568;23;20493;-80
2023/03/22 04:52:39;;;;;;;15.95;6.75;;;9.20;99.90;;;;;;6242615;23;20070;-79
2023/03/22 04:55:05;;;;;;;19.05;7.28;;;9.20;99.90;;;;;;6244710;22;20012;-80
2023/03/22 04:57:31;;;;;;;19.98;8.45;;;9.20;99.90;;;;;;6217396;23;20089;-79
2023/03/22 04:59:57;;;;;;;23.40;8.57;;;9.30;99.90;;;;;;6242240;23;20397;-79
2023/03/22 05:02:22;;;;;;;20.45;8.93;;;9.20;99.90;;;;;;6247393;22;20019;-79
2023/03/22 05:04:48;;;;;;;14.40;7.93;;;9.40;99.90;;;;;;6247818;22;20053;-79
2023/03/22 05:07:14;;;;;;;16.13;9.50;;;9.30;99.90;;;;;;6247410;22;20020;-79
2023/03/22 05:09:39;;;;;;;17.38;10.00;;;9.30;99.90;;;;;;6247439;22;20091;-79
2023/03/22 05:12:05;;;;;;;19.33;10.18;;;9.30;99.90;;;;;;6274442;22;20039;-79
2023/03/22 05:14:31;;;;;;;19.60;11.32;;;9.30;99.90;;;;;;6247542;22;20366;-79
2023/03/22 05:16:57;;;;;;;20.10;11.45;;;9.60;99.90;;;;;;6274914;22;20533;-79
2023/03/22 05:19:23;;;;;;;19.65;11.93;;;9.40;99.90;;;;;;6247393;22;20460;-79
2023/03/22 05:21:49;;;;;;;19.25;11.68;;;9.40;99.90;;;;;;6222168;22;20019;-79
2023/03/22 05:24:14;;;;;;;19.50;12.68;;;9.40;99.90;;;;;;6247357;22;20090;-79
2023/03/22 05:26:43;;;;;;;21.30;12.90;;;9.50;99.90;;;;;;6221424;22;20015;-78
2023/03/22 05:29:09;;;;;;;21.98;12.63;;;9.60;99.90;;;;;;6274718;22;20087;-78
2023/03/22 05:31:35;;;;;;;21.67;13.27;;;9.60;99.90;;;;;;6247204;22;20016;-77
2023/03/22 05:34:02;;;;;;;20.15;13.40;;;9.50;99.90;;;;;;6274713;22;20018;-79
2023/03/22 05:36:31;;;;;;;21.48;14.07;;;9.50;99.90;;;;;;6247590;22;20071;-79
2023/03/22 05:38:57;;;;;;;23.17;13.80;;;9.50;99.90;;;;;;6274961;22;20016;-79
2023/03/22 05:41:23;;;;;;;22.65;14.32;;;9.60;99.90;;;;;;6274301;22;20011;-79
2023/03/22 05:43:49;;;;;;;22.83;14.73;;;9.50;99.90;;;;;;6274418;22;20007;-79
2023/03/22 05:46:15;;;;;;;24.67;15.65;;;9.50;99.90;;;;;;6247210;22;20319;-79
2023/03/22 05:48:44;;;;;;;21.48;14.68;;;9.60;99.90;;;;;;6246769;22;20019;-79
2023/03/22 05:51:16;;;;;;;22.30;14.70;;;9.60;99.90;;;;;;6274196;22;20012;-79
2023/03/22 05:53:43;;;;;;;21.05;14.85;;;9.70;99.90;;;;;;6247206;22;20316;-79
2023/03/22 05:56:09;;;;;;;27.15;15.23;;;9.60;99.90;;;;;;6246729;22;20396;-79
2023/03/22 05:58:35;;;;;;;23.02;15.68;;;9.70;99.90;;;;;;6274420;22;20012;-79
2023/03/22 06:01:15;;;;;;;25.05;15.85;;;9.60;99.90;;;;;;6274575;22;20066;-79
2023/03/22 06:03:44;;;;;;;23.83;15.73;;;9.70;99.90;;;;;;6273785;22;20016;-79
2023/03/22 06:06:09;;;;;;;20.83;15.43;;;9.70;99.90;;;;;;6246976;22;20012;-80
2023/03/22 06:08:39;;;;;;;24.30;16.60;;;9.70;99.90;;;;;;6247062;22;20154;-80
2023/03/22 06:11:05;;;;;;;22.20;16.70;;;9.70;99.90;;;;;;6246828;22;20012;-79
2023/03/22 06:13:31;;;;;;;23.00;15.30;;;9.70;99.90;;;;;;6246760;22;20016;-79
2023/03/22 06:16:01;;;;;;;21.50;15.63;;;9.70;99.90;;;;;;6274399;22;20038;-79
2023/03/22 06:18:28;;;;;;;27.83;15.50;;;9.70;99.90;;;;;;6246864;22;20022;-79
2023/03/22 06:20:53;;;;;;;28.05;16.42;;;9.70;99.90;;;;;;6274399;22;20330;-79
2023/03/22 06:23:19;;;;;;;25.42;15.45;;;9.70;99.90;;;;;;6246921;22;20016;-79
2023/03/22 06:25:45;;;;;;;27.08;15.75;;;9.70;99.90;;;;;;6273831;22;20215;-79
2023/03/22 06:28:14;;;;;;;25.75;15.43;;;9.80;99.90;;;;;;6274072;22;20043;-79
2023/03/22 06:30:39;;;;;;;21.50;14.52;;;9.80;99.90;;;;;;6246944;22;20012;-79
2023/03/22 06:33:05;;;;;;;20.63;14.27;;;9.80;99.90;;;;;;6246523;22;20014;-80
2023/03/22 06:35:34;;;;;;;25.77;16.17;;;10.10;99.90;;;;;;6246468;22;20012;-80
2023/03/22 06:38:00;;;;;;;23.63;15.00;;;9.90;99.90;;;;;;6274046;22;20012;-79
2023/03/22 06:40:26;;;;;;;23.80;15.35;;;10.10;99.90;;;;;;6273592;22;20335;-80
2023/03/22 06:42:53;;;;;;;20.65;14.35;;;10.10;99.90;;;;;;6247026;22;20023;-79
2023/03/22 06:45:20;;;;;;;24.20;14.38;;;10.10;99.90;;;;;;6246391;22;20068;-80
2023/03/22 06:47:46;;;;;;;21.25;14.68;;;10.10;99.90;;;;;;6273903;22;20087;-80
2023/03/22 06:50:14;;;;;;;24.10;14.98;;;10.10;99.90;;;;;;6246215;22;20334;-79
2023/03/22 06:52:39;;;;;;;23.25;14.60;;;10.20;99.90;;;;;;6273571;22;20007;-79
2023/03/22 06:55:06;;;;;;;22.30;14.63;;;10.20;99.90;;;;;;6246321;22;20011;-79
2023/03/22 06:57:31;;;;;;;19.48;14.15;;;10.20;99.90;;;;;;6246580;22;20031;-79
2023/03/22 06:59:57;;;;;;;20.27;14.30;;;10.30;99.90;;;;;;6246680;22;20434;-79
2023/03/22 07:02:22;;;;;;;22.67;14.02;;;10.40;99.90;;;;;;6246276;22;20016;-79
2023/03/22 07:04:48;;;;;;;22.75;14.88;;;10.50;99.90;;;;;;6221256;22;20014;-79
2023/03/22 07:07:14;;;;;;;21.58;14.00;;;10.50;99.90;;;;;;6274022;22;20007;-79
2023/03/22 07:09:40;;;;;;;20.33;13.82;;;10.50;99.90;;;;;;6273395;22;20087;-79
2023/03/22 07:12:05;;;;;;;19.48;13.27;;;10.50;99.90;;;;;;6274128;22;20065;-79
2023/03/22 07:14:31;;;;;;;18.17;13.27;;;10.50;99.90;;;;;;6246583;22;20004;-79
2023/03/22 07:17:00;;;;;;;21.48;13.27;;;10.60;99.90;;;;;;6273845;22;20047;-79
2023/03/22 07:19:26;;;;;;;21.05;14.10;;;10.70;99.90;;;;;;6273740;22;20011;-79
2023/03/22 07:21:52;;;;;;;19.30;13.45;;;10.90;99.90;;;;;;6246459;22;20019;-80
2023/03/22 07:24:17;;;;;;;20.85;12.65;;;11.00;99.90;;;;;;6246301;22;20007;-79
2023/03/22 07:26:43;;;;;;;20.35;12.60;;;11.10;99.90;;;;;;6246826;22;20023;-79
2023/03/22 07:29:09;;;;;;;18.02;12.40;;;11.20;99.90;;;;;;6246921;22;20011;-79
2023/03/22 07:31:35;;;;;;;19.70;13.25;;;11.20;99.90;;;;;;6247072;22;20348;-79
2023/03/22 07:34:05;;;;;;;16.90;11.73;;;11.10;99.90;;;;;;6273819;22;20012;-79
2023/03/22 07:36:31;;;;;;;16.70;12.32;;;11.10;99.90;;;;;;6246310;22;20014;-79
2023/03/22 07:38:56;;;;;;;17.20;10.90;;;11.10;99.90;;;;;;6246292;22;20363;-79
2023/03/22 07:41:22;;;;;;;16.77;10.90;;;11.20;99.90;;;;;;6274285;22;20016;-80
2023/03/22 07:43:49;;;;;;;16.30;10.40;;;11.30;99.90;;;;;;6273801;22;20015;-80
2023/03/22 07:46:17;;;;;;;17.98;10.13;;;11.20;99.90;;;;;;6222366;22;20018;-80
2023/03/22 07:48:43;;;;;;;18.38;10.05;;;11.20;99.90;;;;;;6248147;22;20022;-80
2023/03/22 07:51:09;;;;;;;16.27;9.95;;;11.20;99.90;;;;;;6275438;22;20015;-79
2023/03/22 07:53:35;;;;;;;16.85;10.18;;;11.20;99.90;;;;;;6247706;22;20004;-79
2023/03/22 07:56:04;;;;;;;19.90;10.80;;;11.10;99.90;;;;;;6248598;22;20007;-79
2023/03/22 07:58:30;;;;;;;16.08;9.95;;;11.00;99.90;;;;;;6248129;22;20077;-79
2023/03/22 08:00:57;;;;;;;15.30;8.88;;;11.00;99.90;;;;;;6248510;22;20422;-80
2023/03/22 08:03:23;;;;;;;17.92;9.88;;;10.90;99.90;;;;;;6247678;22;20018;-79
2023/03/22 08:05:50;;;;;;;16.48;9.55;;;10.90;99.90;;;;;;6222638;22;20035;-79
2023/03/22 08:08:16;;;;;;;14.13;8.93;;;10.90;99.90;;;;;;6247440;22;20015;-80
2023/03/22 08:10:49;;;;;;;16.02;9.85;;;10.90;99.90;;;;;;6248079;22;20041;-79
2023/03/22 08:13:15;;;;;;;;;;;10.90;99.90;;;;;;6223168;22;20046;-79
2023/03/22 08:15:43;;;;;;;17.50;8.80;;;10.90;99.90;;;;;;6248314;22;19911;-79
2023/03/22 08:18:09;;;;;;;13.95;8.00;;;11.20;99.90;;;;;;6223224;22;20022;-80
2023/03/22 08:20:36;;;;;;;16.33;8.02;;;11.40;99.90;;;;;;6221883;22;20011;-80
2023/03/22 08:23:02;;;;;;;13.00;7.55;;;11.60;99.90;;;;;;6247987;22;20016;-80
2023/03/22 08:25:28;;;;;;;15.95;7.60;;;11.80;99.90;;;;;;6247901;22;20008;-80
2023/03/22 08:27:54;;;;;;;12.95;7.70;;;11.80;99.90;;;;;;6274913;22;20014;-80
2023/03/22 08:30:21;;;;;;;13.18;6.82;;;11.80;99.90;;;;;;6222710;22;20007;-79
2023/03/22 08:32:46;;;;;;;13.32;7.35;;;11.70;99.90;;;;;;6222574;22;20034;-80
2023/03/22 08:35:15;;;;;;;15.57;6.88;;;11.70;99.90;;;;;;6247722;22;20015;-80
2023/03/22 08:37:41;;;;;;;15.63;6.95;;;11.50;99.90;;;;;;6222491;22;20023;-79
2023/03/22 08:40:10;;;;;;;13.77;6.15;;;11.50;99.90;;;;;;6247720;22;20015;-80
2023/03/22 08:42:37;;;;;;;15.65;6.80;;;11.60;99.90;;;;;;6222877;22;20015;-79
2023/03/22 08:45:03;;;;;;;17.42;6.45;;;11.50;99.90;;;;;;6247760;22;20476;-79
2023/03/22 08:47:30;;;;;;;15.20;6.35;;;11.60;99.90;;;;;;6247723;22;20015;-80
2023/03/22 08:49:56;;;;;;;15.25;6.40;;;11.70;99.90;;;;;;6247300;22;20039;-79
2023/03/22 08:52:21;;;;;;;14.15;6.68;;;11.90;99.90;;;;;;6248307;22;20030;-79
2023/03/22 08:54:47;;;;;;;14.63;6.30;;;11.90;99.90;;;;;;6248158;22;20004;-80
2023/03/22 08:57:16;;;;;;;16.17;6.25;;;12.00;99.90;;;;;;6248040;22;20043;-80
2023/03/22 08:59:41;;;;;;;12.38;5.50;;;12.10;99.90;;;;;;6247686;22;20319;-80
2023/03/22 09:02:08;;;;;;;16.63;6.03;;;12.20;99.90;;;;;;6222287;22;20018;-79
2023/03/22 09:04:34;;;;;;;11.18;5.80;;;12.30;99.90;;;;;;6247175;22;20039;-80
2023/03/22 09:06:59;;;;;;;12.93;6.13;;;12.40;99.90;;;;;;6247754;22;20034;-80
2023/03/22 09:09:25;;;;;;;13.52;5.78;;;12.50;99.90;;;;;;6222299;22;20092;-80
2023/03/22 09:11:50;;;;;;;17.67;5.70;;;12.60;99.90;;;;;;6247836;22;20011;-80
2023/03/22 09:14:16;;;;;;;13.60;5.63;;;12.60;99.90;;;;;;6247518;22;20123;-79
2023/03/22 09:16:42;;;;;;;11.25;5.05;;;12.70;99.90;;;;;;6247628;22;20090;-80
2023/03/22 09:19:08;;;;;;;14.00;5.50;;;12.80;99.90;;;;;;6274269;22;20050;-80
2023/03/22 09:21:34;;;;;;;12.88;6.10;;;12.80;99.90;;;;;;6222417;22;20012;-80
2023/03/22 09:24:00;;;;;;;18.30;5.55;;;12.90;99.90;;;;;;6222049;22;20015;-80
2023/03/22 09:26:25;;;;;;;12.40;5.18;;;12.80;99.90;;;;;;6222481;22;20016;-80
2023/03/22 09:28:51;;;;;;;12.35;5.68;;;12.70;99.90;;;;;;6247193;22;20008;-80
2023/03/22 09:31:17;;;;;;;15.73;5.32;;;12.60;99.90;;;;;;6274763;22;20039;-80
2023/03/22 09:33:46;;;;;;;11.70;4.85;;;12.60;99.90;;;;;;6246769;22;20012;-80
2023/03/22 09:36:11;;;;;;;15.80;5.50;;;12.50;99.90;;;;;;6247167;22;20007;-79
2023/03/22 09:38:38;;;;;;;14.65;5.25;;;12.50;99.90;;;;;;6274661;22;20497;-79
2023/03/22 09:41:12;;;;;;;12.05;4.53;;;12.40;99.90;;;;;;6247092;22;20061;-79
2023/03/22 09:44:09;;;;;;;16.10;5.53;;;12.60;99.90;;;;;;6247260;22;20034;-80
2023/03/22 09:46:43;;;;;;;13.52;4.38;;;12.50;99.90;;;;;;6241313;22;20012;-79
2023/03/22 09:49:23;;;;;;;15.55;4.55;;;12.50;99.90;;;;;;6246891;22;20567;-80
2023/03/22 09:51:53;;;;;;;13.18;4.35;;;12.50;99.90;;;;;;6274928;22;20103;-80
2023/03/22 09:54:32;;;;;;;12.95;4.50;;;12.60;99.90;;;;;;6274552;22;20014;-79
2023/03/22 09:57:27;;;;;;;12.93;5.03;;;12.60;99.90;;;;;;6222090;22;20392;-79
2023/03/22 10:00:11;;;;;;;16.40;4.80;;;12.60;99.90;;;;;;6268200;22;20011;-79
2023/03/22 10:02:53;;;;;;;17.13;4.97;;;12.60;99.90;;;;;;6273959;22;20038;-79
2023/03/22 10:05:33;;;;;;;14.52;3.92;;;12.40;99.90;;;;;;6247579;22;20011;-78
2023/03/22 10:08:11;;;;;;;16.75;4.35;;;12.30;99.90;;;;;;6247106;22;20038;-80
2023/03/22 10:10:41;;;;;;;12.88;5.00;;;12.20;99.90;;;;;;6247805;22;20022;-79
2023/03/22 10:13:35;;;;;;;10.85;4.35;;;12.20;99.90;;;;;;6247065;22;20064;-79
2023/03/22 10:16:09;;;;;;;15.48;4.47;;;12.10;99.90;;;;;;6274719;22;20087;-80
2023/03/22 10:18:36;;;;;;;14.93;4.60;;;12.00;99.90;;;;;;6246526;22;20080;-80
2023/03/22 10:21:11;;;;;;;13.20;3.95;;;11.90;99.90;;;;;;6247435;22;20047;-79
2023/03/22 10:23:49;;;;;;;12.07;4.32;;;11.80;99.90;;;;;;6247023;22;20015;-79
2023/03/22 10:26:32;;;;;;;15.00;4.35;;;11.80;99.90;;;;;;6247101;22;20468;-79
2023/03/22 10:29:03;;;;;;;14.38;4.20;;;11.70;99.90;;;;;;6246975;22;20086;-79
2023/03/22 10:31:30;;;;;;;13.25;4.47;;;11.60;99.90;;;;;;6273556;22;20039;-80
2023/03/22 10:34:22;;;;;;;13.02;4.93;;;11.60;99.90;;;;;;6221883;22;20043;-79
2023/03/22 10:36:50;;;;;;;15.88;5.28;;;11.50;99.90;;;;;;6274409;22;20039;-79
2023/03/22 10:39:45;;;;;;;15.13;5.18;;;11.50;99.90;;;;;;6221455;22;20448;-80
2023/03/22 10:42:18;;;;;;;11.95;4.80;;;11.50;99.90;;;;;;6246892;22;20012;-80
2023/03/22 10:44:53;;;;;;;15.18;5.85;;;11.50;99.90;;;;;;6246953;22;20012;-79
2023/03/22 10:47:28;;;;;;;12.30;4.60;;;11.50;99.90;;;;;;6246267;22;20054;-80
2023/03/22 10:49:55;;;;;;;17.40;4.43;;;11.40;99.90;;;;;;6221551;22;20023;-79
2023/03/22 10:52:43;;;;;;;16.95;6.22;;;11.40;99.90;;;;;;6246943;22;20007;-79
2023/03/22 10:55:14;;;;;;;13.38;5.10;;;11.40;99.90;;;;;;6246974;22;20011;-79
2023/03/22 10:57:45;;;;;;;13.85;5.38;;;11.40;99.90;;;;;;6274635;22;20311;-79
2023/03/22 11:00:14;;;;;;;15.13;5.32;;;11.30;99.90;;;;;;6274005;22;20074;-79
2023/03/22 11:02:49;;;;;;;13.15;5.45;;;11.30;99.90;;;;;;6246613;22;20008;-79
2023/03/22 11:05:22;;;;;;;11.30;4.07;;;11.30;99.90;;;;;;6247132;22;20020;-79
2023/03/22 11:07:48;;;;;;;13.33;5.00;;;11.30;99.90;;;;;;6221471;22;20019;-79
2023/03/22 11:10:26;;;;;;;12.98;5.78;;;11.30;99.90;;;;;;6246749;22;20338;-79
2023/03/22 11:13:13;;;;;;;12.65;4.53;;;11.30;99.90;;;;;;6247111;22;20066;-79
2023/03/22 11:15:47;;;;;;;13.45;5.40;;;11.20;99.90;;;;;;6245952;22;20334;-79
2023/03/22 11:18:16;;;;;;;11.45;4.47;;;11.30;99.90;;;;;;6246897;22;20089;-80
2023/03/22 11:20:54;;;;;;;11.75;5.43;;;11.20;99.90;;;;;;6222426;22;20012;-79
2023/03/22 11:23:21;;;;;;;11.85;5.30;;;11.10;99.90;;;;;;6223660;22;20345;-79
2023/03/22 11:25:49;;;;;;;11.60;4.82;;;11.20;99.90;;;;;;6249211;22;20008;-79
2023/03/22 11:28:21;;;;;;;11.55;4.82;;;11.20;99.90;;;;;;6248829;22;20454;-79
2023/03/22 11:31:06;;;;;;;15.45;5.43;;;11.20;99.90;;;;;;6222957;22;20008;-79
2023/03/22 11:33:36;;;;;;;13.82;5.10;;;11.20;99.90;;;;;;6275909;22;20496;-79
2023/03/22 11:36:13;;;;;;;11.35;4.90;;;11.30;99.90;;;;;;6222196;22;20016;-79
2023/03/22 11:38:43;;;;;;;10.90;4.50;;;11.30;99.90;;;;;;6275593;22;20434;-79
2023/03/22 11:41:25;;;;;;;8.65;4.93;;;11.20;99.90;;;;;;6248622;22;20054;-79
2023/03/22 11:43:55;;;;;;;12.02;4.95;;;11.30;99.90;;;;;;6275731;22;20027;-79
2023/03/22 11:46:21;;;;;;;15.40;4.57;;;11.40;99.90;;;;;;6248771;22;20018;-79
2023/03/22 11:48:50;;;;;;;11.82;4.35;;;11.40;99.90;;;;;;6248553;22;20446;-79
2023/03/22 11:51:25;;;;;;;10.73;4.30;;;11.40;99.90;;;;;;6276124;22;20413;-80
2023/03/22 11:53:57;;;;;;;9.48;4.93;;;11.80;99.90;;;;;;6248540;22;20330;-80
2023/03/22 11:56:27;;;;;;;11.18;5.13;;;11.50;99.90;;;;;;6248647;22;20357;-79
2023/03/22 11:59:35;;;;;;;10.70;4.18;;;11.40;99.90;;;;;;6275370;22;20012;-79
2023/03/22 12:02:17;;;;;;;11.85;4.10;;;11.40;99.90;;;;;;6248422;22;20091;-79
2023/03/22 12:04:46;;;;;;;10.50;4.20;;;11.50;99.90;;;;;;6248737;22;20015;-79
2023/03/22 12:07:18;;;;;;;13.00;4.75;;;11.50;99.90;;;;;;6248536;22;20023;-79
2023/03/22 12:10:09;;;;;;;9.75;3.97;;;11.50;99.90;;;;;;6275848;22;20312;-79
2023/03/22 12:12:40;;;;;;;9.25;4.00;;;11.40;99.90;;;;;;6275491;22;20043;-80
2023/03/22 12:15:41;;;;;;;12.20;4.07;;;11.40;99.90;;;;;;6248341;22;20007;-80
2023/03/22 12:18:13;;;;;;;9.20;3.85;;;11.30;99.90;;;;;;6275787;22;20083;-79
2023/03/22 12:20:41;;;;;;;13.57;4.60;;;11.30;99.90;;;;;;6275618;22;20482;-78
2023/03/22 12:23:19;;;;;;;7.97;3.70;;;11.30;99.90;;;;;;6248330;22;20435;-79
2023/03/22 12:26:19;;;;;;;10.95;3.80;;;11.30;99.90;;;;;;6275929;22;20015;-79
2023/03/22 12:29:04;;;;;;;13.88;4.22;;;11.30;99.90;;;;;;6248163;22;20102;-79
2023/03/22 12:31:42;;;;;;;9.20;3.85;;;11.30;99.90;;;;;;6248305;22;20012;-80
2023/03/22 12:34:32;;;;;;;8.05;3.67;;;11.20;99.90;;;;;;6276086;22;20008;-79
2023/03/22 12:36:59;;;;;;;8.43;3.60;;;11.20;99.90;;;;;;6248429;22;20019;-79
2023/03/22 12:39:30;;;;;;;6.78;3.50;;;11.20;99.90;;;;;;6248613;22;20082;-78
2023/03/22 12:42:01;;;;;;;10.40;3.85;;;11.20;99.90;;;;;;6275183;22;20015;-78
2023/03/22 12:44:33;;;;;;;11.13;4.05;;;11.20;99.90;;;;;;6248207;22;20008;-79
2023/03/22 12:47:10;;;;;;;11.07;4.38;;;11.30;99.90;;;;;;6275658;22;20141;-79
2023/03/22 12:50:03;;;;;;;10.65;4.65;;;11.20;99.90;;;;;;6275220;22;20023;-79
2023/03/22 12:52:44;;;;;;;10.88;4.63;;;11.20;99.90;;;;;;6274589;22;20385;-79
2023/03/22 12:55:44;;;;;;;11.98;5.32;;;11.20;99.90;;;;;;6248171;22;20026;-79
2023/03/22 12:58:14;;;;;;;12.63;4.55;;;11.10;99.90;;;;;;6269603;22;20019;-78
2023/03/22 13:00:39;;;;;;;13.32;5.25;;;11.10;99.90;;;;;;6248095;22;20019;-78